Time;durP1;ratioP1;P1;durP2;ratioP2;P2;SDS_P1;SDS_P2;PMS_P1;PMS_P2;Temp;Humidity;BMP_temperature;BMP_pressure;BME280_temperature;BME280_humidity;BME280_pressure;Samples;Min_cycle;Max_cycle;Signal;HPM_P1;HPM_P2
2021/08/21 00:02:05;;;;;;;;;;;;;;;35.02;20.41;94516.91;5111940;28;19924;-62
2021/08/21 00:04:32;;;;;;;;;;;;;;;34.88;20.86;94527.06;5111773;28;19919;-65
2021/08/21 00:06:59;;;;;;;;;;;;;;;35.16;20.66;94530.03;5112389;28;19916;-62
2021/08/21 00:09:26;;;;;;;;;;;;;;;34.91;20.85;94531.63;5111982;28;19923;-57
2021/08/21 00:11:53;;;;;;;;;;;;;;;35.11;20.67;94528.59;5120924;28;20211;-58
2021/08/21 00:14:21;;;;;;;;;;;;;;;35.03;20.88;94532.03;5112114;28;19927;-57
2021/08/21 00:16:48;;;;;;;;;;;;;;;34.88;21.11;94532.50;5111063;28;19920;-58
2021/08/21 00:19:16;;;;;;;;;;;;;;;34.93;21.09;94529.22;5110650;28;19920;-59
2021/08/21 00:21:43;;;;;;;;;;;;;;;35.00;20.71;94530.94;5111823;28;19916;-52
2021/08/21 00:24:10;;;;;;;;;;;;;;;34.81;20.96;94529.97;5111780;28;20337;-55
2021/08/21 00:26:36;;;;;;;;;;;;;;;34.99;20.73;94532.13;5111980;28;19916;-51
2021/08/21 00:29:12;;;;;;;;;;;;;;;34.94;20.47;94535.41;5111469;28;19978;-57
2021/08/21 00:31:39;;;;;;;;;;;;;;;34.73;20.66;94536.84;5111494;28;20053;-50
2021/08/21 00:34:06;;;;;;;;;;;;;;;34.68;20.60;94537.41;5110907;28;19926;-50
2021/08/21 00:36:33;;;;;;;;;;;;;;;34.71;20.58;94539.25;5112096;28;19923;-49
2021/08/21 00:39:15;;;;;;;;;;;;;;;34.80;20.39;94552.13;5108665;28;19922;-49
2021/08/21 00:41:42;;;;;;;;;;;;;;;34.79;20.39;94551.38;5120512;28;19928;-49
2021/08/21 00:44:09;;;;;;;;;;;;;;;34.57;20.55;94545.13;5097897;28;19920;-49
2021/08/21 00:46:55;;;;;;;;;;;;;;;34.68;20.45;94545.56;5098292;28;20234;-54
2021/08/21 00:49:26;;;;;;;;;;;;;;;34.48;20.51;94543.06;5097725;28;19923;-49
2021/08/21 00:51:55;;;;;;;;;;;;;;;34.65;20.67;94546.44;5095785;28;19927;-50
2021/08/21 00:54:23;;;;;;;;;;;;;;;34.68;20.60;94542.06;5098313;28;20287;-61
2021/08/21 00:56:51;;;;;;;;;;;;;;;34.28;20.89;94537.09;5096662;28;19916;-68
2021/08/21 00:59:18;;;;;;;;;;;;;;;34.63;20.63;94543.41;5076255;28;19924;-63
2021/08/21 01:01:45;;;;;;;;;;;;;;;34.69;20.45;94541.63;5111794;28;19924;-51
2021/08/21 01:04:12;;;;;;;;;;;;;;;34.51;20.79;94546.88;5097835;28;20246;-52
2021/08/21 01:06:39;;;;;;;;;;;;;;;34.45;20.90;94546.66;5097917;28;19923;-58
2021/08/21 01:09:06;;;;;;;;;;;;;;;34.39;21.37;94545.69;5096458;28;20195;-62
2021/08/21 01:11:33;;;;;;;;;;;;;;;34.30;21.13;94543.59;5143187;27;19981;-52
2021/08/21 01:14:00;;;;;;;;;;;;;;;34.25;21.54;94544.13;5117008;28;19923;-50
2021/08/21 01:16:27;;;;;;;;;;;;;;;34.38;21.44;94554.28;5100226;28;19920;-48
2021/08/21 01:18:55;;;;;;;;;;;;;;;34.24;21.41;94550.75;5109418;28;19916;-63
2021/08/21 01:21:22;;;;;;;;;;;;;;;34.26;21.58;94556.50;5079507;28;19924;-54
2021/08/21 01:23:49;;;;;;;;;;;;;;;34.13;21.58;94550.34;5091748;28;19916;-56
2021/08/21 01:26:24;;;;;;;;;;;;;;;34.12;21.81;94553.47;5076360;28;19924;-56
2021/08/21 01:29:17;;;;;;;;;;;;;;;34.19;21.71;94555.97;5084210;28;19920;-50
2021/08/21 01:32:22;;;;;;;;;;;;;;;34.01;22.22;94548.34;5087833;28;19939;-61
2021/08/21 01:34:49;;;;;;;;;;;;;;;34.27;21.68;94555.31;5129863;27;19927;-59
2021/08/21 01:37:23;;;;;;;;;;;;;;;34.21;22.07;94553.59;5096957;28;20235;-70
2021/08/21 01:40:11;;;;;;;;;;;;;;;34.41;21.40;94558.81;5096752;28;19920;-50
2021/08/21 01:42:41;;;;;;;;;;;;;;;34.43;21.60;94551.78;5117283;28;19923;-61
2021/08/21 01:45:12;;;;;;;;;;;;;;;34.12;22.04;94562.38;5115704;28;19920;-50
2021/08/21 01:48:02;;;;;;;;;;;;;;;34.64;21.50;94561.19;5117439;28;19916;-48
2021/08/21 01:50:30;;;;;;;;;;;;;;;34.85;21.12;94560.50;5057723;28;19916;-49
2021/08/21 01:52:57;;;;;;;;;;;;;;;34.88;21.04;94558.91;5074417;28;19917;-48
2021/08/21 01:55:31;;;;;;;;;;;;;;;34.71;21.19;94550.09;5056375;28;20355;-51
2021/08/21 01:58:02;;;;;;;;;;;;;;;34.91;20.91;94555.31;5057480;28;20002;-49
2021/08/21 02:00:40;;;;;;;;;;;;;;;34.63;21.07;94554.25;5057294;28;19951;-49
2021/08/21 02:03:07;;;;;;;;;;;;;;;34.85;20.81;94565.94;5057425;28;19923;-49
2021/08/21 02:05:38;;;;;;;;;;;;;;;34.95;20.78;94564.09;5057654;28;20347;-54
2021/08/21 02:08:06;;;;;;;;;;;;;;;34.80;20.80;94560.28;5057248;28;20040;-50
2021/08/21 02:10:33;;;;;;;;;;;;;;;34.84;20.71;94564.44;5060784;28;19927;-49
2021/08/21 02:13:00;;;;;;;;;;;;;;;34.68;20.72;94556.41;5077475;28;19931;-48
2021/08/21 02:15:28;;;;;;;;;;;;;;;34.58;20.82;94554.78;5077403;28;20247;-47
2021/08/21 02:17:59;;;;;;;;;;;;;;;34.64;20.96;94563.91;5111054;28;19916;-62
2021/08/21 02:20:46;;;;;;;;;;;;;;;34.59;21.17;94564.44;5078976;28;20279;-58
2021/08/21 02:23:21;;;;;;;;;;;;;;;34.66;21.11;94564.22;5095456;28;19920;-51
2021/08/21 02:25:55;;;;;;;;;;;;;;;34.63;21.10;94556.97;5096471;28;19917;-50
2021/08/21 02:28:23;;;;;;;;;;;;;;;34.56;21.15;94554.47;5094869;28;19916;-49
2021/08/21 02:30:50;;;;;;;;;;;;;;;35.00;20.78;94566.25;5094634;28;19924;-47
2021/08/21 02:33:17;;;;;;;;;;;;;;;34.68;21.02;94561.84;5095939;28;19920;-47
2021/08/21 02:35:44;;;;;;;;;;;;;;;34.65;21.28;94556.53;5094828;28;19919;-50
2021/08/21 02:38:11;;;;;;;;;;;;;;;34.48;21.25;94564.03;5077791;28;19916;-49
2021/08/21 02:40:38;;;;;;;;;;;;;;;34.42;21.35;94557.63;5099884;28;20341;-47
2021/08/21 02:43:05;;;;;;;;;;;;;;;34.63;21.21;94563.16;5116095;28;19944;-49
2021/08/21 02:45:32;;;;;;;;;;;;;;;34.65;21.05;94562.72;5116167;28;19973;-48
2021/08/21 02:47:58;;;;;;;;;;;;;;;34.58;21.24;94563.69;5115734;28;19920;-52
2021/08/21 02:50:25;;;;;;;;;;;;;;;34.67;21.06;94563.03;5098498;28;19930;-56
2021/08/21 02:52:52;;;;;;;;;;;;;;;34.77;20.97;94570.06;5093503;28;19927;-48
2021/08/21 02:55:22;;;;;;;;;;;;;;;34.63;21.01;94570.53;5094109;28;19928;-47
2021/08/21 02:57:51;;;;;;;;;;;;;;;34.59;21.24;94567.91;5094622;28;19916;-48
2021/08/21 03:00:19;;;;;;;;;;;;;;;34.58;21.39;94577.25;5094039;28;19924;-50
2021/08/21 03:02:51;;;;;;;;;;;;;;;34.64;21.28;94574.78;5094217;28;19916;-47
2021/08/21 03:05:18;;;;;;;;;;;;;;;34.43;21.45;94575.44;5095251;28;19920;-47
2021/08/21 03:07:45;;;;;;;;;;;;;;;34.40;21.37;94579.78;5094479;28;20318;-48
2021/08/21 03:10:13;;;;;;;;;;;;;;;34.34;21.57;94576.06;5093767;28;19963;-48
2021/08/21 03:13:06;;;;;;;;;;;;;;;34.42;21.46;94582.06;5092062;28;19916;-49
2021/08/21 03:15:34;;;;;;;;;;;;;;;34.20;21.46;94582.66;5094317;28;19928;-49
2021/08/21 03:18:01;;;;;;;;;;;;;;;34.51;21.26;94584.88;5094979;28;20303;-49
2021/08/21 03:20:28;;;;;;;;;;;;;;;34.40;21.62;94581.72;5093393;28;19927;-50
2021/08/21 03:22:56;;;;;;;;;;;;;;;34.38;21.57;94586.84;5093528;28;20274;-48
2021/08/21 03:25:26;;;;;;;;;;;;;;;34.40;21.53;94589.88;5094169;28;19920;-50
2021/08/21 03:27:54;;;;;;;;;;;;;;;34.22;21.67;94591.13;5094065;28;19920;-59
2021/08/21 03:30:21;;;;;;;;;;;;;;;34.38;21.60;94600.41;5093700;28;19924;-56
2021/08/21 03:32:57;;;;;;;;;;;;;;;34.12;21.54;94597.63;5095017;28;19928;-49
2021/08/21 03:35:23;;;;;;;;;;;;;;;34.06;21.86;94596.63;5095439;28;20330;-49
2021/08/21 03:37:51;;;;;;;;;;;;;;;34.36;21.53;94594.66;5094274;28;19920;-47
2021/08/21 03:40:17;;;;;;;;;;;;;;;34.20;21.64;94598.94;5094854;28;19924;-53
2021/08/21 03:42:57;;;;;;;;;;;;;;;34.26;21.32;94591.78;5093228;28;19923;-47
2021/08/21 03:45:24;;;;;;;;;;;;;;;34.22;21.34;94599.25;5093898;28;19923;-51
2021/08/21 03:47:52;;;;;;;;;;;;;;;34.14;21.68;94606.09;5094142;28;19924;-48
2021/08/21 03:50:20;;;;;;;;;;;;;;;34.30;21.31;94603.28;5093918;28;19947;-53
2021/08/21 03:52:47;;;;;;;;;;;;;;;34.33;21.45;94607.84;5127870;28;19927;-50
2021/08/21 03:55:14;;;;;;;;;;;;;;;34.38;21.51;94619.41;5094222;28;19923;-49
2021/08/21 03:57:42;;;;;;;;;;;;;;;34.35;21.28;94614.81;5094187;28;20242;-48
2021/08/21 04:00:10;;;;;;;;;;;;;;;34.32;21.48;94619.88;5093826;28;20224;-49
2021/08/21 04:02:43;;;;;;;;;;;;;;;34.24;21.48;94620.53;5094839;28;19920;-48
2021/08/21 04:05:13;;;;;;;;;;;;;;;34.22;21.35;94626.41;5095177;28;19924;-50
2021/08/21 04:07:40;;;;;;;;;;;;;;;34.12;21.61;94622.03;5093220;28;19916;-47
2021/08/21 04:10:07;;;;;;;;;;;;;;;34.27;21.24;94625.09;5094780;28;19927;-47
2021/08/21 04:12:36;;;;;;;;;;;;;;;34.29;21.48;94628.88;5094510;28;19947;-63
2021/08/21 04:15:12;;;;;;;;;;;;;;;34.04;21.82;94623.41;5093983;28;19927;-48
2021/08/21 04:17:40;;;;;;;;;;;;;;;34.07;21.75;94627.97;5095159;28;19923;-58
2021/08/21 04:20:08;;;;;;;;;;;;;;;34.05;21.55;94624.19;5097529;28;19923;-50
2021/08/21 04:22:38;;;;;;;;;;;;;;;34.08;21.70;94626.03;5097265;28;19923;-48
2021/08/21 04:25:07;;;;;;;;;;;;;;;34.26;21.37;94629.00;5097697;28;19927;-48
2021/08/21 04:27:34;;;;;;;;;;;;;;;34.22;21.45;94634.53;5097784;28;19920;-48
2021/08/21 04:30:01;;;;;;;;;;;;;;;34.09;21.72;94641.88;5097146;28;19920;-51
2021/08/21 04:32:28;;;;;;;;;;;;;;;34.33;21.21;94636.91;5096534;28;19920;-63
2021/08/21 04:34:55;;;;;;;;;;;;;;;33.58;22.84;94635.53;5097158;28;19923;-53
2021/08/21 04:37:23;;;;;;;;;;;;;;;32.63;24.04;94640.09;5096963;28;19924;-51
2021/08/21 04:39:50;;;;;;;;;;;;;;;32.15;24.86;94638.78;5077746;28;19917;-55
2021/08/21 04:42:21;;;;;;;;;;;;;;;31.71;25.52;94645.44;5098234;28;20330;-55
2021/08/21 04:44:49;;;;;;;;;;;;;;;31.36;26.00;94654.19;5096547;28;20325;-47
2021/08/21 04:47:16;;;;;;;;;;;;;;;31.06;26.27;94647.69;5076759;28;19924;-48
2021/08/21 04:49:45;;;;;;;;;;;;;;;31.21;25.60;94638.22;5076630;28;19924;-60
2021/08/21 04:52:12;;;;;;;;;;;;;;;31.06;25.65;94645.00;5090661;28;19924;-66
2021/08/21 04:54:41;;;;;;;;;;;;;;;31.18;24.97;94649.84;5096982;28;19916;-68
2021/08/21 04:57:09;;;;;;;;;;;;;;;31.26;24.79;94651.25;5096843;28;19923;-67
2021/08/21 04:59:51;;;;;;;;;;;;;;;31.23;25.30;94652.09;5096863;28;19916;-51
2021/08/21 05:02:19;;;;;;;;;;;;;;;31.51;25.17;94650.06;5096954;28;19924;-52
2021/08/21 05:04:46;;;;;;;;;;;;;;;31.52;24.98;94646.19;5096546;28;19920;-50
2021/08/21 05:07:13;;;;;;;;;;;;;;;31.84;24.34;94656.41;5096640;28;19924;-57
2021/08/21 05:09:45;;;;;;;;;;;;;;;31.60;24.51;94647.56;5096646;28;19916;-68
2021/08/21 05:12:18;;;;;;;;;;;;;;;31.64;24.52;94661.00;5099445;28;19924;-47
2021/08/21 05:14:52;;;;;;;;;;;;;;;31.73;24.33;94655.84;5096457;28;19916;-46
2021/08/21 05:17:19;;;;;;;;;;;;;;;32.02;24.40;94661.47;5096554;28;19920;-65
2021/08/21 05:20:51;;;;;;;;;;;;;;;31.87;24.36;94661.75;5096120;28;19927;-47
2021/08/21 05:25:30;;;;;;;;;;;;;;;32.24;24.08;94659.84;5082213;28;20339;-47
2021/08/21 05:28:01;;;;;;;;;;;;;;;32.47;23.58;94664.41;5076568;28;19935;-62
2021/08/21 05:30:34;;;;;;;;;;;;;;;32.57;23.29;94657.28;5076778;28;19928;-50
2021/08/21 05:33:01;;;;;;;;;;;;;;;32.84;23.39;94660.53;5096820;28;19951;-49
2021/08/21 05:35:28;;;;;;;;;;;;;;;32.70;23.90;94660.81;5097392;28;19916;-47
2021/08/21 05:37:55;;;;;;;;;;;;;;;32.90;22.89;94653.44;5096153;28;19920;-47
2021/08/21 05:40:22;;;;;;;;;;;;;;;32.98;22.96;94660.19;5091794;28;19930;-47
2021/08/21 05:42:48;;;;;;;;;;;;;;;33.32;22.38;94661.75;5098801;28;20334;-47
2021/08/21 05:45:15;;;;;;;;;;;;;;;33.47;22.67;94657.47;5096413;28;19923;-48
2021/08/21 05:47:42;;;;;;;;;;;;;;;33.04;22.58;94663.16;5097004;28;19920;-48
2021/08/21 05:50:09;;;;;;;;;;;;;;;33.71;22.39;94666.91;5097013;28;19931;-48
2021/08/21 05:52:36;;;;;;;;;;;;;;;33.71;21.75;94660.72;5093135;28;19920;-49
2021/08/21 05:55:03;;;;;;;;;;;;;;;33.90;21.88;94661.81;5097044;28;20223;-47
2021/08/21 05:57:41;;;;;;;;;;;;;;;33.99;21.91;94664.63;5095730;28;19916;-48
2021/08/21 06:00:08;;;;;;;;;;;;;;;33.92;21.89;94664.84;5096213;28;19951;-47
2021/08/21 06:02:40;;;;;;;;;;;;;;;34.15;21.53;94666.53;5095757;28;19920;-47
2021/08/21 06:05:08;;;;;;;;;;;;;;;33.66;21.80;94659.31;5096240;28;19916;-48
2021/08/21 06:07:36;;;;;;;;;;;;;;;34.55;20.74;94666.94;5095823;28;20311;-48
2021/08/21 06:10:08;;;;;;;;;;;;;;;34.21;21.19;94654.72;5093319;28;19923;-48
2021/08/21 06:12:35;;;;;;;;;;;;;;;34.25;21.01;94663.50;5100205;28;19927;-55
2021/08/21 06:15:02;;;;;;;;;;;;;;;34.71;20.57;94661.41;5096414;28;20212;-66
2021/08/21 06:17:29;;;;;;;;;;;;;;;34.91;20.55;94664.69;5096502;28;19916;-57
2021/08/21 06:19:56;;;;;;;;;;;;;;;34.57;20.73;94665.31;5095265;28;19927;-59
2021/08/21 06:22:23;;;;;;;;;;;;;;;35.49;19.92;94664.38;5095000;28;20303;-56
2021/08/21 06:24:51;;;;;;;;;;;;;;;35.38;20.26;94665.91;5083250;28;19920;-53
2021/08/21 06:27:18;;;;;;;;;;;;;;;35.63;19.81;94659.66;5096561;28;19920;-63
2021/08/21 06:29:44;;;;;;;;;;;;;;;35.70;19.24;94656.69;5096183;28;19916;-49
2021/08/21 06:32:11;;;;;;;;;;;;;;;35.93;19.11;94661.75;5094477;28;19939;-51
2021/08/21 06:34:38;;;;;;;;;;;;;;;35.98;19.15;94657.69;5088114;28;20012;-54
2021/08/21 06:37:06;;;;;;;;;;;;;;;35.75;19.46;94645.25;5127723;27;19920;-54
2021/08/21 06:39:33;;;;;;;;;;;;;;;36.14;18.63;94655.50;5095793;28;19924;-55
2021/08/21 06:42:04;;;;;;;;;;;;;;;36.18;18.90;94649.97;5101932;28;19920;-50
2021/08/21 06:44:36;;;;;;;;;;;;;;;36.30;18.60;94661.97;5094578;28;19990;-56
2021/08/21 06:47:04;;;;;;;;;;;;;;;37.45;17.96;94650.91;5092718;28;19919;-55
2021/08/21 06:49:32;;;;;;;;;;;;;;;37.69;17.45;94646.38;5077991;28;19982;-55
2021/08/21 06:52:01;;;;;;;;;;;;;;;38.47;17.19;94653.09;5077094;28;20354;-57
2021/08/21 06:54:28;;;;;;;;;;;;;;;38.89;16.77;94650.41;5078268;28;20325;-56
2021/08/21 06:56:55;;;;;;;;;;;;;;;39.03;16.58;94652.44;5095473;28;19923;-57
2021/08/21 06:59:23;;;;;;;;;;;;;;;39.22;16.24;94650.38;5084114;28;19921;-72
2021/08/21 07:01:49;;;;;;;;;;;;;;;39.29;16.20;94654.75;5082384;28;19927;-72
2021/08/21 07:04:16;;;;;;;;;;;;;;;39.53;15.78;94652.78;5094071;28;19924;-74
2021/08/21 07:06:44;;;;;;;;;;;;;;;39.17;16.21;94648.28;5095460;28;19920;-72
2021/08/21 07:09:11;;;;;;;;;;;;;;;39.99;15.52;94649.69;5082864;28;19943;-72
2021/08/21 07:11:38;;;;;;;;;;;;;;;40.53;15.20;94642.16;5092279;28;20232;-72
2021/08/21 07:14:05;;;;;;;;;;;;;;;40.18;15.61;94651.03;5079658;28;19923;-73
2021/08/21 07:16:32;;;;;;;;;;;;;;;39.54;15.92;94648.06;5095227;28;19920;-73
2021/08/21 07:19:00;;;;;;;;;;;;;;;40.54;15.22;94643.66;5095241;28;19950;-70
2021/08/21 07:21:27;;;;;;;;;;;;;;;40.47;15.11;94655.75;5095381;28;19920;-72
2021/08/21 07:23:54;;;;;;;;;;;;;;;40.79;15.22;94653.25;5095068;28;19924;-71
2021/08/21 07:26:21;;;;;;;;;;;;;;;40.61;14.69;94660.47;5095001;28;19927;-70
2021/08/21 07:28:48;;;;;;;;;;;;;;;41.34;14.18;94663.53;5095155;28;19950;-72
2021/08/21 07:31:15;;;;;;;;;;;;;;;41.64;14.80;94658.66;5094156;28;19924;-72
2021/08/21 07:33:42;;;;;;;;;;;;;;;42.03;14.03;94651.63;5084811;28;19924;-71
2021/08/21 07:36:09;;;;;;;;;;;;;;;42.20;13.48;94659.31;5094980;28;19916;-72
2021/08/21 07:38:36;;;;;;;;;;;;;;;42.03;13.75;94657.13;5094994;28;19920;-71
2021/08/21 07:41:03;;;;;;;;;;;;;;;42.21;13.50;94656.06;5102911;28;19926;-73
2021/08/21 07:43:30;;;;;;;;;;;;;;;41.77;13.51;94657.09;5115696;28;19931;-73
2021/08/21 07:45:57;;;;;;;;;;;;;;;41.72;13.68;94665.28;5095022;28;20243;-71
2021/08/21 07:48:24;;;;;;;;;;;;;;;41.75;13.89;94669.78;5093895;28;20499;-71
2021/08/21 07:50:50;;;;;;;;;;;;;;;41.41;14.17;94666.63;5094101;28;19930;-52
2021/08/21 07:53:17;;;;;;;;;;;;;;;41.07;14.54;94667.38;5097142;28;19927;-59
2021/08/21 07:55:44;;;;;;;;;;;;;;;41.49;14.37;94667.72;5099370;28;19927;-63
2021/08/21 07:58:11;;;;;;;;;;;;;;;41.54;14.34;94672.53;5097892;28;19916;-60
2021/08/21 08:00:38;;;;;;;;;;;;;;;41.07;14.21;94670.13;5099198;28;19924;-61
2021/08/21 08:03:05;;;;;;;;;;;;;;;40.17;14.33;94665.94;5098943;28;19927;-61
2021/08/21 08:05:32;;;;;;;;;;;;;;;40.93;13.88;94677.16;5098996;28;19947;-56
2021/08/21 08:07:58;;;;;;;;;;;;;;;40.60;14.01;94675.41;5098515;28;20303;-56
2021/08/21 08:10:25;;;;;;;;;;;;;;;41.14;13.94;94673.25;5101496;28;19919;-56
2021/08/21 08:12:52;;;;;;;;;;;;;;;41.42;14.40;94676.38;5108112;28;19924;-55
2021/08/21 08:15:19;;;;;;;;;;;;;;;41.04;13.54;94668.34;5088451;28;19916;-56
2021/08/21 08:17:46;;;;;;;;;;;;;;;40.58;13.95;94672.38;5082505;28;19916;-58
2021/08/21 08:20:12;;;;;;;;;;;;;;;41.37;14.68;94668.81;5098376;28;19946;-56
2021/08/21 08:23:12;;;;;;;;;;;;;;;41.35;14.24;94676.75;5094436;28;20327;-70
2021/08/21 08:25:43;;;;;;;;;;;;;;;41.80;14.19;94669.09;5098232;28;19927;-66
2021/08/21 08:28:09;;;;;;;;;;;;;;;41.45;13.65;94664.44;5096291;28;19923;-66
2021/08/21 08:30:36;;;;;;;;;;;;;;;41.39;14.09;94660.88;5090712;28;19925;-61
2021/08/21 08:33:06;;;;;;;;;;;;;;;41.81;13.94;94660.38;5090280;28;19920;-74
2021/08/21 08:35:34;;;;;;;;;;;;;;;42.04;13.60;94661.38;5098614;28;19920;-62
2021/08/21 08:38:00;;;;;;;;;;;;;;;41.02;13.94;94670.81;5099231;28;19923;-70
2021/08/21 08:40:27;;;;;;;;;;;;;;;41.74;14.11;94669.03;5102146;28;19919;-59
2021/08/21 08:42:54;;;;;;;;;;;;;;;42.00;13.80;94674.56;5108318;28;19923;-59
2021/08/21 08:45:21;;;;;;;;;;;;;;;42.17;13.78;94664.53;5097540;28;19916;-77
2021/08/21 08:47:48;;;;;;;;;;;;;;;42.27;13.06;94669.84;5098342;28;19916;-76
2021/08/21 08:50:15;;;;;;;;;;;;;;;41.72;13.33;94665.28;5098129;28;20369;-64
2021/08/21 08:52:42;;;;;;;;;;;;;;;41.85;13.63;94662.91;5098079;28;19924;-70
2021/08/21 08:55:09;;;;;;;;;;;;;;;42.26;13.07;94657.34;5098284;28;20230;-57
2021/08/21 08:57:36;;;;;;;;;;;;;;;42.21;12.87;94653.31;5098157;28;19962;-68
2021/08/21 09:00:10;;;;;;;;;;;;;;;42.33;12.62;94654.16;5099260;28;20234;-71
2021/08/21 09:02:39;;;;;;;;;;;;;;;42.49;13.10;94650.84;5097875;28;19920;-52
2021/08/21 09:05:07;;;;;;;;;;;;;;;42.20;13.14;94653.81;5097636;28;20373;-63
2021/08/21 09:07:38;;;;;;;;;;;;;;;42.26;12.99;94651.88;5095913;28;19917;-61
2021/08/21 09:10:15;;;;;;;;;;;;;;;42.22;12.65;94645.84;5096289;28;19924;-66
2021/08/21 09:12:42;;;;;;;;;;;;;;;41.83;12.66;94648.91;5109701;28;19927;-67
2021/08/21 09:15:19;;;;;;;;;;;;;;;41.50;12.61;94643.78;5097594;28;20211;-59
2021/08/21 09:18:06;;;;;;;;;;;;;;;42.38;12.40;94647.97;5086058;28;19916;-60
2021/08/21 09:20:34;;;;;;;;;;;;;;;42.40;13.05;94640.00;5096281;28;19927;-52
2021/08/21 09:23:21;;;;;;;;;;;;;;;42.13;13.43;94644.75;5097467;28;19927;-54
2021/08/21 09:25:49;;;;;;;;;;;;;;;41.84;13.89;94639.44;5097612;28;20590;-70
2021/08/21 09:28:26;;;;;;;;;;;;;;;42.21;12.93;94636.84;5097191;28;20337;-65
2021/08/21 09:31:00;;;;;;;;;;;;;;;41.88;12.96;94637.25;5095196;28;19931;-70
2021/08/21 09:33:27;;;;;;;;;;;;;;;42.02;12.51;94638.38;5096208;28;19928;-57
2021/08/21 09:35:54;;;;;;;;;;;;;;;41.98;12.99;94630.38;5096708;28;20291;-59
2021/08/21 09:38:29;;;;;;;;;;;;;;;42.38;13.38;94624.00;5095961;28;19923;-61
2021/08/21 09:41:00;;;;;;;;;;;;;;;42.45;13.00;94626.31;5097420;28;20333;-49
2021/08/21 09:43:31;;;;;;;;;;;;;;;42.72;12.56;94633.28;5096852;28;19923;-69
2021/08/21 09:46:13;;;;;;;;;;;;;;;42.53;13.01;94620.41;5097450;28;19916;-53
2021/08/21 09:48:59;;;;;;;;;;;;;;;42.13;12.20;94622.78;5076866;28;19916;-55
2021/08/21 09:51:33;;;;;;;;;;;;;;;42.34;12.39;94623.47;5076889;28;19920;-52
2021/08/21 09:54:01;;;;;;;;;;;;;;;42.58;12.40;94623.19;5121979;27;19924;-52
2021/08/21 09:56:35;;;;;;;;;;;;;;;42.68;12.54;94619.03;5097073;28;19920;-53
2021/08/21 09:59:02;;;;;;;;;;;;;;;42.38;11.78;94631.47;5106264;28;19919;-51
2021/08/21 10:01:30;;;;;;;;;;;;;;;42.13;11.64;94628.28;5108564;28;19927;-52
2021/08/21 10:03:57;;;;;;;;;;;;;;;42.46;11.92;94621.56;5105115;28;19927;-50
2021/08/21 10:06:24;;;;;;;;;;;;;;;42.27;12.73;94612.19;5096958;28;19916;-49
2021/08/21 10:08:55;;;;;;;;;;;;;;;42.48;12.67;94619.13;5096648;28;19920;-51
2021/08/21 10:11:22;;;;;;;;;;;;;;;42.51;12.07;94626.38;5095953;28;19927;-50
2021/08/21 10:13:49;;;;;;;;;;;;;;;42.25;11.71;94618.16;5096223;28;20299;-49
2021/08/21 10:16:16;;;;;;;;;;;;;;;41.82;11.96;94620.72;5096069;28;19916;-49
2021/08/21 10:18:42;;;;;;;;;;;;;;;42.51;12.07;94615.41;5095982;28;19916;-51
2021/08/21 10:21:09;;;;;;;;;;;;;;;42.53;12.32;94620.41;5096624;28;20246;-48
2021/08/21 10:23:40;;;;;;;;;;;;;;;42.33;12.47;94610.22;5087536;28;19927;-50
2021/08/21 10:26:10;;;;;;;;;;;;;;;42.46;12.31;94610.59;5095560;28;20002;-52
2021/08/21 10:28:38;;;;;;;;;;;;;;;42.29;11.90;94618.69;5102119;28;20242;-57
2021/08/21 10:31:06;;;;;;;;;;;;;;;42.30;12.32;94600.97;5107678;28;19935;-55
2021/08/21 10:33:51;;;;;;;;;;;;;;;42.74;11.72;94608.06;5094991;28;20542;-55
2021/08/21 10:39:34;;;;;;;;;;;;;;;42.57;12.10;94607.94;5095786;28;20199;-55
2021/08/21 10:42:19;;;;;;;;;;;;;;;42.58;11.82;94590.22;5094704;28;19916;-52
2021/08/21 10:44:47;;;;;;;;;;;;;;;42.65;11.95;94603.50;5095232;28;20306;-71
2021/08/21 10:47:34;;;;;;;;;;;;;;;42.67;11.97;94603.75;5095509;28;19920;-57
2021/08/21 10:50:21;;;;;;;;;;;;;;;42.88;11.76;94598.16;5095684;28;19920;-66
2021/08/21 10:52:55;;;;;;;;;;;;;;;42.54;11.93;94588.94;5087497;28;19927;-63
2021/08/21 10:55:25;;;;;;;;;;;;;;;42.33;12.15;94588.25;5095869;28;20268;-53
2021/08/21 10:57:59;;;;;;;;;;;;;;;42.60;11.59;94593.22;5094655;28;20234;-50
2021/08/21 11:00:35;;;;;;;;;;;;;;;42.37;11.78;94581.28;5075576;28;19921;-53
2021/08/21 11:03:01;;;;;;;;;;;;;;;42.17;11.83;94587.66;5111037;28;19916;-55
2021/08/21 11:05:47;;;;;;;;;;;;;;;42.48;11.46;94580.66;5095015;28;19916;-55
2021/08/21 11:08:14;;;;;;;;;;;;;;;42.38;11.47;94584.78;5094696;28;19920;-55
2021/08/21 11:10:41;;;;;;;;;;;;;;;42.57;11.79;94588.69;5095489;28;19923;-57
2021/08/21 11:13:10;;;;;;;;;;;;;;;42.73;11.74;94577.06;5094241;28;19928;-55
2021/08/21 11:15:37;;;;;;;;;;;;;;;42.46;11.38;94580.38;5093428;28;19947;-70
2021/08/21 11:18:18;;;;;;;;;;;;;;;42.76;11.59;94584.34;5094250;28;19916;-57
2021/08/21 11:20:46;;;;;;;;;;;;;;;42.66;11.50;94585.00;5102821;28;20233;-50
2021/08/21 11:23:12;;;;;;;;;;;;;;;41.39;12.07;94577.84;5112289;28;20352;-51
2021/08/21 11:25:40;;;;;;;;;;;;;;;41.80;11.31;94584.03;5090995;28;19923;-74
2021/08/21 11:28:10;;;;;;;;;;;;;;;42.15;11.38;94575.63;5074731;28;19927;-59
2021/08/21 11:30:37;;;;;;;;;;;;;;;42.68;11.41;94577.03;5074859;28;19925;-54
2021/08/21 11:33:07;;;;;;;;;;;;;;;42.64;11.55;94582.00;5109850;28;19931;-72
2021/08/21 11:35:35;;;;;;;;;;;;;;;42.39;11.60;94578.81;5095544;28;19927;-68
2021/08/21 11:38:09;;;;;;;;;;;;;;;42.74;11.01;94564.84;5080688;28;19917;-57
2021/08/21 11:40:40;;;;;;;;;;;;;;;43.07;11.29;94571.78;5075296;28;19916;-70
2021/08/21 11:43:12;;;;;;;;;;;;;;;42.82;10.63;94575.38;5076926;28;19924;-72
2021/08/21 11:45:39;;;;;;;;;;;;;;;42.17;10.71;94568.44;5094381;28;19920;-69
2021/08/21 11:48:08;;;;;;;;;;;;;;;42.81;11.09;94565.63;5095163;28;19916;-73
2021/08/21 11:50:36;;;;;;;;;;;;;;;42.41;10.69;94575.56;5095465;28;19928;-71
2021/08/21 11:53:04;;;;;;;;;;;;;;;42.05;10.62;94560.53;5095075;28;20226;-71
2021/08/21 11:55:31;;;;;;;;;;;;;;;41.15;11.12;94569.81;5090184;28;19916;-72
2021/08/21 11:57:58;;;;;;;;;;;;;;;41.03;11.47;94562.66;5107186;28;19917;-70
2021/08/21 12:00:27;;;;;;;;;;;;;;;40.79;11.26;94565.56;5091835;28;20223;-70
2021/08/21 12:02:59;;;;;;;;;;;;;;;41.73;11.12;94565.25;5092622;28;19927;-70
2021/08/21 12:05:25;;;;;;;;;;;;;;;40.62;11.35;94557.13;5094698;28;19924;-70
2021/08/21 12:07:52;;;;;;;;;;;;;;;40.97;11.40;94566.09;5094805;28;19979;-58
2021/08/21 12:10:19;;;;;;;;;;;;;;;40.13;11.75;94569.56;5095008;28;19949;-74
2021/08/21 12:12:54;;;;;;;;;;;;;;;41.81;11.76;94560.84;5095548;28;19923;-69
2021/08/21 12:15:22;;;;;;;;;;;;;;;41.19;11.62;94562.88;5127182;28;19927;-70
2021/08/21 12:17:48;;;;;;;;;;;;;;;40.90;11.73;94560.28;5091030;28;20436;-69
2021/08/21 12:20:15;;;;;;;;;;;;;;;41.91;11.76;94553.19;5094531;28;20353;-69
2021/08/21 12:22:42;;;;;;;;;;;;;;;41.86;11.93;94549.91;5094646;28;19920;-70
2021/08/21 12:25:09;;;;;;;;;;;;;;;41.82;12.00;94548.63;5094749;28;19916;-72
2021/08/21 12:27:36;;;;;;;;;;;;;;;40.11;12.57;94552.88;5094865;28;19916;-66
2021/08/21 12:30:06;;;;;;;;;;;;;;;41.01;11.82;94554.19;5074332;28;20234;-75
2021/08/21 12:32:33;;;;;;;;;;;;;;;40.65;12.02;94550.72;5102652;28;20234;-63
2021/08/21 12:35:10;;;;;;;;;;;;;;;40.83;12.29;94553.19;5099056;28;19924;-71
2021/08/21 12:37:37;;;;;;;;;;;;;;;40.51;12.56;94554.22;5094888;28;19920;-77
2021/08/21 12:40:10;;;;;;;;;;;;;;;40.96;12.33;94564.59;5098646;28;19916;-77
2021/08/21 12:42:37;;;;;;;;;;;;;;;41.55;12.37;94563.53;5093168;28;19923;-77
2021/08/21 12:45:17;;;;;;;;;;;;;;;41.54;12.24;94568.28;5094453;28;19922;-71
2021/08/21 12:47:44;;;;;;;;;;;;;;;41.89;12.10;94567.38;5098630;28;19916;-72
2021/08/21 12:50:12;;;;;;;;;;;;;;;42.78;11.59;94564.59;5090268;28;19920;-67
2021/08/21 12:52:40;;;;;;;;;;;;;;;42.28;11.76;94572.50;5079332;28;19923;-67
2021/08/21 12:55:08;;;;;;;;;;;;;;;41.48;12.45;94566.72;5094266;28;20250;-71
2021/08/21 12:57:39;;;;;;;;;;;;;;;41.57;11.68;94572.03;5098051;28;19939;-66
2021/08/21 13:00:16;;;;;;;;;;;;;;;41.57;12.51;94572.03;5081530;28;19927;-71
2021/08/21 13:02:44;;;;;;;;;;;;;;;41.81;12.10;94569.81;5140855;27;19916;-70
2021/08/21 13:05:14;;;;;;;;;;;;;;;41.76;11.72;94572.50;5101386;28;20314;-69
2021/08/21 13:07:42;;;;;;;;;;;;;;;41.66;12.41;94569.19;5098038;28;19920;-75